sensor_id;sensor_type;location;lat;lon;timestamp;temperature;humidity
47618;DHT22;33336;36.728;-4.414;2023-03-01T00:02:15;11.30;58.10
47618;DHT22;33336;36.728;-4.414;2023-03-01T00:07:19;11.20;58.60
47618;DHT22;33336;36.728;-4.414;2023-03-01T00:12:23;11.20;58.50
47618;DHT22;33336;36.728;-4.414;2023-03-01T00:17:27;11.00;59.10
47618;DHT22;33336;36.728;-4.414;2023-03-01T00:22:33;11.10;58.80
47618;DHT22;33336;36.728;-4.414;2023-03-01T00:27:35;11.30;58.40
47618;DHT22;33336;36.728;-4.414;2023-03-01T00:32:38;11.00;58.40
47618;DHT22;33336;36.728;-4.414;2023-03-01T00:37:42;10.80;58.20
47618;DHT22;33336;36.728;-4.414;2023-03-01T00:42:46;10.80;58.40
47618;DHT22;33336;36.728;-4.414;2023-03-01T00:47:49;10.80;58.70
47618;DHT22;33336;36.728;-4.414;2023-03-01T00:52:55;11.10;58.20
47618;DHT22;33336;36.728;-4.414;2023-03-01T00:57:58;10.80;58.80
47618;DHT22;33336;36.728;-4.414;2023-03-01T01:03:01;10.60;59.20
47618;DHT22;33336;36.728;-4.414;2023-03-01T01:08:05;10.50;59.60
47618;DHT22;33336;36.728;-4.414;2023-03-01T01:13:09;10.60;59.90
47618;DHT22;33336;36.728;-4.414;2023-03-01T01:18:12;10.60;59.90
47618;DHT22;33336;36.728;-4.414;2023-03-01T01:23:17;10.70;59.70
47618;DHT22;33336;36.728;-4.414;2023-03-01T01:28:19;10.80;59.60
47618;DHT22;33336;36.728;-4.414;2023-03-01T01:33:23;10.90;59.50
47618;DHT22;33336;36.728;-4.414;2023-03-01T01:38:27;10.80;59.60
47618;DHT22;33336;36.728;-4.414;2023-03-01T01:43:34;10.90;59.40
47618;DHT22;33336;36.728;-4.414;2023-03-01T01:48:41;10.80;59.60
47618;DHT22;33336;36.728;-4.414;2023-03-01T01:53:49;10.60;60.70
47618;DHT22;33336;36.728;-4.414;2023-03-01T01:58:53;10.60;60.80
47618;DHT22;33336;36.728;-4.414;2023-03-01T02:03:58;10.70;60.30
47618;DHT22;33336;36.728;-4.414;2023-03-01T02:09:06;10.70;60.70
47618;DHT22;33336;36.728;-4.414;2023-03-01T02:14:10;10.30;61.70
47618;DHT22;33336;36.728;-4.414;2023-03-01T02:19:20;10.40;62.00
47618;DHT22;33336;36.728;-4.414;2023-03-01T02:24:34;10.00;62.30
47618;DHT22;33336;36.728;-4.414;2023-03-01T02:29:42;10.20;61.60
47618;DHT22;33336;36.728;-4.414;2023-03-01T02:34:46;10.40;61.40
47618;DHT22;33336;36.728;-4.414;2023-03-01T02:39:51;10.40;61.80
47618;DHT22;33336;36.728;-4.414;2023-03-01T02:44:58;10.10;62.30
47618;DHT22;33336;36.728;-4.414;2023-03-01T02:50:00;10.10;62.30
47618;DHT22;33336;36.728;-4.414;2023-03-01T02:55:07;10.00;62.80
47618;DHT22;33336;36.728;-4.414;2023-03-01T03:00:14;10.10;63.00
47618;DHT22;33336;36.728;-4.414;2023-03-01T03:05:22;10.10;62.10
47618;DHT22;33336;36.728;-4.414;2023-03-01T03:10:27;10.00;63.00
47618;DHT22;33336;36.728;-4.414;2023-03-01T03:15:33;10.10;62.80
47618;DHT22;33336;36.728;-4.414;2023-03-01T03:20:38;10.10;62.60
47618;DHT22;33336;36.728;-4.414;2023-03-01T03:25:42;10.20;61.80
47618;DHT22;33336;36.728;-4.414;2023-03-01T03:30:46;10.20;61.60
47618;DHT22;33336;36.728;-4.414;2023-03-01T03:35:50;10.30;61.40
47618;DHT22;33336;36.728;-4.414;2023-03-01T03:41:00;10.30;61.80
47618;DHT22;33336;36.728;-4.414;2023-03-01T03:46:06;10.20;62.00
47618;DHT22;33336;36.728;-4.414;2023-03-01T03:51:11;10.20;61.80
47618;DHT22;33336;36.728;-4.414;2023-03-01T03:56:14;10.20;62.10
47618;DHT22;33336;36.728;-4.414;2023-03-01T04:01:19;10.20;61.70
47618;DHT22;33336;36.728;-4.414;2023-03-01T04:06:23;10.20;61.70
47618;DHT22;33336;36.728;-4.414;2023-03-01T04:11:26;10.20;61.80
47618;DHT22;33336;36.728;-4.414;2023-03-01T04:16:30;9.90;62.50
47618;DHT22;33336;36.728;-4.414;2023-03-01T04:21:33;10.00;62.00
47618;DHT22;33336;36.728;-4.414;2023-03-01T04:26:37;10.10;61.90
47618;DHT22;33336;36.728;-4.414;2023-03-01T04:31:41;10.00;61.60
47618;DHT22;33336;36.728;-4.414;2023-03-01T04:36:44;9.70;62.10
47618;DHT22;33336;36.728;-4.414;2023-03-01T04:41:47;9.80;62.40
47618;DHT22;33336;36.728;-4.414;2023-03-01T04:46:51;9.60;62.90
47618;DHT22;33336;36.728;-4.414;2023-03-01T04:51:54;9.70;62.80
47618;DHT22;33336;36.728;-4.414;2023-03-01T04:57:01;9.80;62.20
47618;DHT22;33336;36.728;-4.414;2023-03-01T05:02:05;9.80;62.30
47618;DHT22;33336;36.728;-4.414;2023-03-01T05:07:08;9.80;62.60
47618;DHT22;33336;36.728;-4.414;2023-03-01T05:12:11;9.80;62.20
47618;DHT22;33336;36.728;-4.414;2023-03-01T05:17:15;9.70;62.80
47618;DHT22;33336;36.728;-4.414;2023-03-01T05:22:18;9.70;62.50
47618;DHT22;33336;36.728;-4.414;2023-03-01T05:27:21;9.80;62.20
47618;DHT22;33336;36.728;-4.414;2023-03-01T05:32:25;9.70;62.60
47618;DHT22;33336;36.728;-4.414;2023-03-01T05:37:29;9.50;63.10
47618;DHT22;33336;36.728;-4.414;2023-03-01T05:42:32;9.50;62.50
47618;DHT22;33336;36.728;-4.414;2023-03-01T05:47:36;9.60;62.40
47618;DHT22;33336;36.728;-4.414;2023-03-01T05:52:39;9.50;62.70
47618;DHT22;33336;36.728;-4.414;2023-03-01T05:57:43;9.60;62.60
47618;DHT22;33336;36.728;-4.414;2023-03-01T06:02:48;9.70;62.40
47618;DHT22;33336;36.728;-4.414;2023-03-01T06:07:51;9.60;62.20
47618;DHT22;33336;36.728;-4.414;2023-03-01T06:12:54;9.70;62.60
47618;DHT22;33336;36.728;-4.414;2023-03-01T06:17:59;9.80;62.10
47618;DHT22;33336;36.728;-4.414;2023-03-01T06:23:02;9.60;63.30
47618;DHT22;33336;36.728;-4.414;2023-03-01T06:28:05;9.40;63.40
47618;DHT22;33336;36.728;-4.414;2023-03-01T06:33:09;9.50;63.30
47618;DHT22;33336;36.728;-4.414;2023-03-01T06:38:13;9.40;63.50
47618;DHT22;33336;36.728;-4.414;2023-03-01T06:43:18;9.60;63.10
47618;DHT22;33336;36.728;-4.414;2023-03-01T06:48:23;9.60;63.40
47618;DHT22;33336;36.728;-4.414;2023-03-01T06:53:26;9.40;63.90
47618;DHT22;33336;36.728;-4.414;2023-03-01T06:58:30;9.30;64.00
47618;DHT22;33336;36.728;-4.414;2023-03-01T07:03:34;9.40;63.50
47618;DHT22;33336;36.728;-4.414;2023-03-01T07:08:38;9.20;64.00
47618;DHT22;33336;36.728;-4.414;2023-03-01T07:13:41;9.30;63.60
47618;DHT22;33336;36.728;-4.414;2023-03-01T07:18:46;9.30;63.70
47618;DHT22;33336;36.728;-4.414;2023-03-01T07:23:48;9.30;63.90
47618;DHT22;33336;36.728;-4.414;2023-03-01T07:28:51;9.40;64.00
47618;DHT22;33336;36.728;-4.414;2023-03-01T07:33:56;9.40;64.40
47618;DHT22;33336;36.728;-4.414;2023-03-01T07:38:59;9.60;64.30
47618;DHT22;33336;36.728;-4.414;2023-03-01T07:44:03;9.30;65.40
47618;DHT22;33336;36.728;-4.414;2023-03-01T07:49:08;9.50;65.00
47618;DHT22;33336;36.728;-4.414;2023-03-01T07:54:11;9.80;64.30
47618;DHT22;33336;36.728;-4.414;2023-03-01T07:59:15;9.90;64.70
47618;DHT22;33336;36.728;-4.414;2023-03-01T08:04:19;9.80;65.50
47618;DHT22;33336;36.728;-4.414;2023-03-01T08:09:23;9.90;65.70
47618;DHT22;33336;36.728;-4.414;2023-03-01T08:14:26;10.00;65.50
47618;DHT22;33336;36.728;-4.414;2023-03-01T08:19:31;10.00;65.60
47618;DHT22;33336;36.728;-4.414;2023-03-01T08:24:37;10.10;65.90
47618;DHT22;33336;36.728;-4.414;2023-03-01T08:29:40;10.50;65.00
47618;DHT22;33336;36.728;-4.414;2023-03-01T08:34:46;10.60;65.40
47618;DHT22;33336;36.728;-4.414;2023-03-01T08:39:49;10.70;64.80
47618;DHT22;33336;36.728;-4.414;2023-03-01T08:44:52;11.10;64.30
47618;DHT22;33336;36.728;-4.414;2023-03-01T08:49:56;11.30;64.10
47618;DHT22;33336;36.728;-4.414;2023-03-01T08:54:59;11.30;64.60
47618;DHT22;33336;36.728;-4.414;2023-03-01T09:00:05;11.30;64.90
47618;DHT22;33336;36.728;-4.414;2023-03-01T09:05:11;11.50;64.50
47618;DHT22;33336;36.728;-4.414;2023-03-01T09:10:15;11.50;65.70
47618;DHT22;33336;36.728;-4.414;2023-03-01T09:15:18;11.50;67.00
47618;DHT22;33336;36.728;-4.414;2023-03-01T09:20:23;11.60;67.60
47618;DHT22;33336;36.728;-4.414;2023-03-01T09:25:26;11.70;67.30
47618;DHT22;33336;36.728;-4.414;2023-03-01T09:30:29;12.40;66.20
47618;DHT22;33336;36.728;-4.414;2023-03-01T09:35:33;12.70;65.50
47618;DHT22;33336;36.728;-4.414;2023-03-01T09:40:42;13.10;65.20
47618;DHT22;33336;36.728;-4.414;2023-03-01T09:45:48;13.00;66.00
47618;DHT22;33336;36.728;-4.414;2023-03-01T09:50:54;12.90;66.10
47618;DHT22;33336;36.728;-4.414;2023-03-01T09:56:01;13.20;65.30
47618;DHT22;33336;36.728;-4.414;2023-03-01T10:01:20;13.30;63.90
47618;DHT22;33336;36.728;-4.414;2023-03-01T10:06:27;13.50;63.20
47618;DHT22;33336;36.728;-4.414;2023-03-01T10:11:35;13.50;62.80
47618;DHT22;33336;36.728;-4.414;2023-03-01T10:16:40;13.50;60.80
47618;DHT22;33336;36.728;-4.414;2023-03-01T10:21:48;13.60;61.50
47618;DHT22;33336;36.728;-4.414;2023-03-01T10:26:55;13.90;61.60
47618;DHT22;33336;36.728;-4.414;2023-03-01T10:31:59;14.00;61.50
47618;DHT22;33336;36.728;-4.414;2023-03-01T10:37:12;13.90;61.30
47618;DHT22;33336;36.728;-4.414;2023-03-01T10:42:22;14.30;61.20
47618;DHT22;33336;36.728;-4.414;2023-03-01T10:47:28;14.40;59.20
47618;DHT22;33336;36.728;-4.414;2023-03-01T10:52:40;14.50;61.00
47618;DHT22;33336;36.728;-4.414;2023-03-01T10:57:43;14.20;61.50
47618;DHT22;33336;36.728;-4.414;2023-03-01T11:03:01;14.10;61.60
47618;DHT22;33336;36.728;-4.414;2023-03-01T11:08:06;14.20;62.50
47618;DHT22;33336;36.728;-4.414;2023-03-01T11:13:16;14.40;60.20
47618;DHT22;33336;36.728;-4.414;2023-03-01T11:18:20;14.40;60.70
47618;DHT22;33336;36.728;-4.414;2023-03-01T11:23:26;14.60;65.20
47618;DHT22;33336;36.728;-4.414;2023-03-01T11:28:30;14.40;71.60
47618;DHT22;33336;36.728;-4.414;2023-03-01T11:33:39;14.70;72.50
47618;DHT22;33336;36.728;-4.414;2023-03-01T11:38:45;14.40;73.70
47618;DHT22;33336;36.728;-4.414;2023-03-01T11:43:52;15.20;72.90
47618;DHT22;33336;36.728;-4.414;2023-03-01T11:49:03;15.50;72.50
47618;DHT22;33336;36.728;-4.414;2023-03-01T11:54:22;15.50;73.70
47618;DHT22;33336;36.728;-4.414;2023-03-01T12:00:03;15.10;76.10
47618;DHT22;33336;36.728;-4.414;2023-03-01T12:05:24;15.70;73.80
47618;DHT22;33336;36.728;-4.414;2023-03-01T12:10:35;15.80;74.10
47618;DHT22;33336;36.728;-4.414;2023-03-01T12:16:03;16.20;73.00
47618;DHT22;33336;36.728;-4.414;2023-03-01T12:21:17;16.60;72.20
47618;DHT22;33336;36.728;-4.414;2023-03-01T12:26:30;16.60;68.60
47618;DHT22;33336;36.728;-4.414;2023-03-01T12:32:01;17.30;68.80
47618;DHT22;33336;36.728;-4.414;2023-03-01T12:37:22;17.70;67.00
47618;DHT22;33336;36.728;-4.414;2023-03-01T12:42:33;17.60;69.30
47618;DHT22;33336;36.728;-4.414;2023-03-01T12:47:56;18.20;68.60
47618;DHT22;33336;36.728;-4.414;2023-03-01T12:53:00;18.10;68.50
47618;DHT22;33336;36.728;-4.414;2023-03-01T12:58:17;18.00;67.60
47618;DHT22;33336;36.728;-4.414;2023-03-01T13:03:29;17.70;67.40
47618;DHT22;33336;36.728;-4.414;2023-03-01T13:08:41;18.00;67.20
47618;DHT22;33336;36.728;-4.414;2023-03-01T13:13:47;18.30;67.40
47618;DHT22;33336;36.728;-4.414;2023-03-01T13:18:50;18.90;66.60
47618;DHT22;33336;36.728;-4.414;2023-03-01T13:29:27;18.80;61.10
47618;DHT22;33336;36.728;-4.414;2023-03-01T13:34:51;18.20;63.00
47618;DHT22;33336;36.728;-4.414;2023-03-01T13:39:56;18.40;60.90
47618;DHT22;33336;36.728;-4.414;2023-03-01T13:45:01;18.50;64.80
47618;DHT22;33336;36.728;-4.414;2023-03-01T13:50:06;20.00;62.40
47618;DHT22;33336;36.728;-4.414;2023-03-01T13:55:17;20.40;61.00
47618;DHT22;33336;36.728;-4.414;2023-03-01T14:00:32;19.60;60.10
47618;DHT22;33336;36.728;-4.414;2023-03-01T14:05:35;19.40;59.50
47618;DHT22;33336;36.728;-4.414;2023-03-01T14:10:54;19.20;59.50
47618;DHT22;33336;36.728;-4.414;2023-03-01T14:16:19;20.30;59.10
47618;DHT22;33336;36.728;-4.414;2023-03-01T14:21:26;22.00;59.50
47618;DHT22;33336;36.728;-4.414;2023-03-01T14:26:31;21.00;56.90
47618;DHT22;33336;36.728;-4.414;2023-03-01T14:31:39;20.40;57.50
47618;DHT22;33336;36.728;-4.414;2023-03-01T14:36:43;21.10;57.70
47618;DHT22;33336;36.728;-4.414;2023-03-01T14:41:47;22.80;55.50
47618;DHT22;33336;36.728;-4.414;2023-03-01T14:46:55;23.30;50.00
47618;DHT22;33336;36.728;-4.414;2023-03-01T14:52:00;22.00;49.50
47618;DHT22;33336;36.728;-4.414;2023-03-01T14:57:04;23.00;48.80
47618;DHT22;33336;36.728;-4.414;2023-03-01T15:02:13;24.00;48.40
47618;DHT22;33336;36.728;-4.414;2023-03-01T15:07:18;23.70;48.20
47618;DHT22;33336;36.728;-4.414;2023-03-01T15:12:36;25.20;45.30
47618;DHT22;33336;36.728;-4.414;2023-03-01T15:17:40;26.70;46.80
47618;DHT22;33336;36.728;-4.414;2023-03-01T15:22:44;27.10;46.60
47618;DHT22;33336;36.728;-4.414;2023-03-01T15:27:49;28.20;46.00
47618;DHT22;33336;36.728;-4.414;2023-03-01T15:33:20;29.60;45.70
47618;DHT22;33336;36.728;-4.414;2023-03-01T15:38:35;28.50;46.00
47618;DHT22;33336;36.728;-4.414;2023-03-01T15:43:43;26.70;44.90
47618;DHT22;33336;36.728;-4.414;2023-03-01T15:48:47;23.70;44.60
47618;DHT22;33336;36.728;-4.414;2023-03-01T15:53:54;26.50;45.80
47618;DHT22;33336;36.728;-4.414;2023-03-01T15:59:01;29.20;45.10
47618;DHT22;33336;36.728;-4.414;2023-03-01T16:04:06;25.90;45.00
47618;DHT22;33336;36.728;-4.414;2023-03-01T16:09:09;26.30;46.40
47618;DHT22;33336;36.728;-4.414;2023-03-01T16:14:15;28.90;45.90
47618;DHT22;33336;36.728;-4.414;2023-03-01T16:19:19;28.40;46.40
47618;DHT22;33336;36.728;-4.414;2023-03-01T16:24:23;29.40;44.70
47618;DHT22;33336;36.728;-4.414;2023-03-01T16:29:27;29.30;44.80
47618;DHT22;33336;36.728;-4.414;2023-03-01T16:34:32;28.60;45.30
47618;DHT22;33336;36.728;-4.414;2023-03-01T16:39:38;26.40;46.70
47618;DHT22;33336;36.728;-4.414;2023-03-01T16:44:41;26.00;47.20
47618;DHT22;33336;36.728;-4.414;2023-03-01T16:49:45;25.30;47.90
47618;DHT22;33336;36.728;-4.414;2023-03-01T16:54:49;27.10;47.40
47618;DHT22;33336;36.728;-4.414;2023-03-01T16:59:52;27.40;46.80
47618;DHT22;33336;36.728;-4.414;2023-03-01T17:04:56;23.40;47.70
47618;DHT22;33336;36.728;-4.414;2023-03-01T17:10:00;23.70;47.50
47618;DHT22;33336;36.728;-4.414;2023-03-01T17:15:05;22.80;48.60
47618;DHT22;33336;36.728;-4.414;2023-03-01T17:20:11;26.00;47.00
47618;DHT22;33336;36.728;-4.414;2023-03-01T17:25:14;24.80;47.90
47618;DHT22;33336;36.728;-4.414;2023-03-01T17:30:17;24.30;47.70
47618;DHT22;33336;36.728;-4.414;2023-03-01T17:35:22;23.70;48.30
47618;DHT22;33336;36.728;-4.414;2023-03-01T17:40:25;23.10;47.80
47618;DHT22;33336;36.728;-4.414;2023-03-01T17:45:29;22.50;49.10
47618;DHT22;33336;36.728;-4.414;2023-03-01T17:50:33;20.70;51.10
47618;DHT22;33336;36.728;-4.414;2023-03-01T17:55:40;20.80;51.10
47618;DHT22;33336;36.728;-4.414;2023-03-01T18:00:43;20.00;51.90
47618;DHT22;33336;36.728;-4.414;2023-03-01T18:05:47;19.60;52.40
47618;DHT22;33336;36.728;-4.414;2023-03-01T18:10:57;18.80;52.90
47618;DHT22;33336;36.728;-4.414;2023-03-01T18:16:04;18.40;53.90
47618;DHT22;33336;36.728;-4.414;2023-03-01T18:21:09;17.80;54.40
47618;DHT22;33336;36.728;-4.414;2023-03-01T18:26:14;17.80;54.00
47618;DHT22;33336;36.728;-4.414;2023-03-01T18:31:19;16.50;55.70
47618;DHT22;33336;36.728;-4.414;2023-03-01T18:36:26;16.20;56.40
47618;DHT22;33336;36.728;-4.414;2023-03-01T18:41:30;16.10;56.20
47618;DHT22;33336;36.728;-4.414;2023-03-01T18:46:34;16.20;55.90
47618;DHT22;33336;36.728;-4.414;2023-03-01T18:51:41;15.90;56.30
47618;DHT22;33336;36.728;-4.414;2023-03-01T18:56:45;15.10;56.90
47618;DHT22;33336;36.728;-4.414;2023-03-01T19:01:47;15.00;57.40
47618;DHT22;33336;36.728;-4.414;2023-03-01T19:06:52;14.70;57.60
47618;DHT22;33336;36.728;-4.414;2023-03-01T19:11:55;15.00;57.50
47618;DHT22;33336;36.728;-4.414;2023-03-01T19:17:02;14.50;58.40
47618;DHT22;33336;36.728;-4.414;2023-03-01T19:22:06;14.60;58.10
47618;DHT22;33336;36.728;-4.414;2023-03-01T19:27:10;14.60;58.50
47618;DHT22;33336;36.728;-4.414;2023-03-01T19:32:12;14.30;59.00
47618;DHT22;33336;36.728;-4.414;2023-03-01T19:37:17;14.50;58.30
47618;DHT22;33336;36.728;-4.414;2023-03-01T19:42:20;14.30;58.40
47618;DHT22;33336;36.728;-4.414;2023-03-01T19:47:26;14.10;59.00
47618;DHT22;33336;36.728;-4.414;2023-03-01T19:52:31;14.10;58.90
47618;DHT22;33336;36.728;-4.414;2023-03-01T19:57:35;14.00;59.20
47618;DHT22;33336;36.728;-4.414;2023-03-01T20:02:37;13.90;59.50
47618;DHT22;33336;36.728;-4.414;2023-03-01T20:07:42;13.30;60.30
47618;DHT22;33336;36.728;-4.414;2023-03-01T20:12:45;13.50;60.10
47618;DHT22;33336;36.728;-4.414;2023-03-01T20:17:51;13.70;59.60
47618;DHT22;33336;36.728;-4.414;2023-03-01T20:22:55;13.10;61.00
47618;DHT22;33336;36.728;-4.414;2023-03-01T20:28:01;13.20;60.80
47618;DHT22;33336;36.728;-4.414;2023-03-01T20:33:03;13.20;60.70
47618;DHT22;33336;36.728;-4.414;2023-03-01T20:38:08;13.40;60.30
47618;DHT22;33336;36.728;-4.414;2023-03-01T20:43:11;13.60;59.50
47618;DHT22;33336;36.728;-4.414;2023-03-01T20:48:14;13.40;60.40
47618;DHT22;33336;36.728;-4.414;2023-03-01T20:53:19;13.00;61.30
47618;DHT22;33336;36.728;-4.414;2023-03-01T20:58:25;13.20;60.90
47618;DHT22;33336;36.728;-4.414;2023-03-01T21:03:28;13.20;60.40
47618;DHT22;33336;36.728;-4.414;2023-03-01T21:08:34;13.50;60.30
47618;DHT22;33336;36.728;-4.414;2023-03-01T21:13:36;13.40;60.50
47618;DHT22;33336;36.728;-4.414;2023-03-01T21:18:40;13.10;61.20
47618;DHT22;33336;36.728;-4.414;2023-03-01T21:23:47;13.10;61.50
47618;DHT22;33336;36.728;-4.414;2023-03-01T21:28:54;12.90;62.10
47618;DHT22;33336;36.728;-4.414;2023-03-01T21:33:58;12.90;62.10
47618;DHT22;33336;36.728;-4.414;2023-03-01T21:39:05;12.90;62.00
47618;DHT22;33336;36.728;-4.414;2023-03-01T21:44:08;13.20;61.60
47618;DHT22;33336;36.728;-4.414;2023-03-01T21:49:11;12.80;62.60
47618;DHT22;33336;36.728;-4.414;2023-03-01T21:54:22;12.50;63.40
47618;DHT22;33336;36.728;-4.414;2023-03-01T21:59:25;12.40;63.60
47618;DHT22;33336;36.728;-4.414;2023-03-01T22:04:29;12.60;63.20
47618;DHT22;33336;36.728;-4.414;2023-03-01T22:09:34;12.90;62.30
47618;DHT22;33336;36.728;-4.414;2023-03-01T22:14:39;12.80;62.40
47618;DHT22;33336;36.728;-4.414;2023-03-01T22:19:44;12.70;62.70
47618;DHT22;33336;36.728;-4.414;2023-03-01T22:24:49;13.00;62.20
47618;DHT22;33336;36.728;-4.414;2023-03-01T22:29:52;12.70;63.00
47618;DHT22;33336;36.728;-4.414;2023-03-01T22:34:55;12.80;62.50
47618;DHT22;33336;36.728;-4.414;2023-03-01T22:40:00;12.60;63.00
47618;DHT22;33336;36.728;-4.414;2023-03-01T22:45:04;12.50;62.80
47618;DHT22;33336;36.728;-4.414;2023-03-01T22:50:11;12.50;62.90
47618;DHT22;33336;36.728;-4.414;2023-03-01T22:55:16;12.40;62.90
47618;DHT22;33336;36.728;-4.414;2023-03-01T23:00:22;12.40;63.30
47618;DHT22;33336;36.728;-4.414;2023-03-01T23:05:25;12.60;62.60
47618;DHT22;33336;36.728;-4.414;2023-03-01T23:10:30;12.80;62.50
47618;DHT22;33336;36.728;-4.414;2023-03-01T23:15:33;12.80;62.90
47618;DHT22;33336;36.728;-4.414;2023-03-01T23:20:58;12.60;63.00
47618;DHT22;33336;36.728;-4.414;2023-03-01T23:26:02;12.90;62.70
47618;DHT22;33336;36.728;-4.414;2023-03-01T23:31:08;13.00;62.70
47618;DHT22;33336;36.728;-4.414;2023-03-01T23:36:16;13.00;62.40
47618;DHT22;33336;36.728;-4.414;2023-03-01T23:41:24;13.10;62.30
47618;DHT22;33336;36.728;-4.414;2023-03-01T23:46:29;13.10;62.10
47618;DHT22;33336;36.728;-4.414;2023-03-01T23:51:32;13.10;62.20
47618;DHT22;33336;36.728;-4.414;2023-03-01T23:56:38;12.80;63.10
